sensor_id;sensor_type;location;lat;lon;timestamp;temperature;humidity
59007;DHT22;44792;52.760;6.726;2024-01-11T00:00:34;-3.40;99.90
59007;DHT22;44792;52.760;6.726;2024-01-11T00:03:00;-3.50;99.90
59007;DHT22;44792;52.760;6.726;2024-01-11T00:05:26;-3.40;99.90
59007;DHT22;44792;52.760;6.726;2024-01-11T00:07:52;-3.50;99.90
59007;DHT22;44792;52.760;6.726;2024-01-11T00:10:18;-3.50;99.90
59007;DHT22;44792;52.760;6.726;2024-01-11T00:12:44;-3.60;99.90
59007;DHT22;44792;52.760;6.726;2024-01-11T00:15:09;-3.50;99.90
59007;DHT22;44792;52.760;6.726;2024-01-11T00:17:36;-3.50;99.90
59007;DHT22;44792;52.760;6.726;2024-01-11T00:20:01;-3.60;99.90
59007;DHT22;44792;52.760;6.726;2024-01-11T00:22:27;-3.50;99.90
59007;DHT22;44792;52.760;6.726;2024-01-11T00:24:53;-3.50;99.90
59007;DHT22;44792;52.760;6.726;2024-01-11T00:27:19;-3.50;99.90
59007;DHT22;44792;52.760;6.726;2024-01-11T00:29:44;-3.50;99.90
59007;DHT22;44792;52.760;6.726;2024-01-11T00:32:10;-3.50;99.90
59007;DHT22;44792;52.760;6.726;2024-01-11T00:34:36;-3.50;99.90
59007;DHT22;44792;52.760;6.726;2024-01-11T00:37:02;-3.50;99.90
59007;DHT22;44792;52.760;6.726;2024-01-11T00:39:27;-3.50;99.90
59007;DHT22;44792;52.760;6.726;2024-01-11T00:41:54;-3.50;99.90
59007;DHT22;44792;52.760;6.726;2024-01-11T00:44:20;-3.50;99.90
59007;DHT22;44792;52.760;6.726;2024-01-11T00:46:46;-3.60;99.90
59007;DHT22;44792;52.760;6.726;2024-01-11T00:49:12;-3.60;99.90
59007;DHT22;44792;52.760;6.726;2024-01-11T00:51:37;-3.60;99.90
59007;DHT22;44792;52.760;6.726;2024-01-11T00:54:03;-3.60;99.90
59007;DHT22;44792;52.760;6.726;2024-01-11T00:56:29;-3.70;99.90
59007;DHT22;44792;52.760;6.726;2024-01-11T00:58:54;-3.80;99.90
59007;DHT22;44792;52.760;6.726;2024-01-11T01:01:20;-3.70;99.90
59007;DHT22;44792;52.760;6.726;2024-01-11T01:03:46;-3.80;99.90
59007;DHT22;44792;52.760;6.726;2024-01-11T01:06:12;-3.70;99.90
59007;DHT22;44792;52.760;6.726;2024-01-11T01:08:37;-3.70;99.90
59007;DHT22;44792;52.760;6.726;2024-01-11T01:11:03;-3.70;99.90
59007;DHT22;44792;52.760;6.726;2024-01-11T01:13:29;-3.70;99.90
59007;DHT22;44792;52.760;6.726;2024-01-11T01:15:55;-3.80;99.90
59007;DHT22;44792;52.760;6.726;2024-01-11T01:18:20;-3.80;99.90
59007;DHT22;44792;52.760;6.726;2024-01-11T01:20:46;-3.80;99.90
59007;DHT22;44792;52.760;6.726;2024-01-11T01:23:12;-3.80;99.90
59007;DHT22;44792;52.760;6.726;2024-01-11T01:25:38;-3.70;99.90
59007;DHT22;44792;52.760;6.726;2024-01-11T01:28:03;-3.70;99.90
59007;DHT22;44792;52.760;6.726;2024-01-11T01:30:29;-3.80;99.90
59007;DHT22;44792;52.760;6.726;2024-01-11T01:32:55;-3.70;99.90
59007;DHT22;44792;52.760;6.726;2024-01-11T01:35:21;-3.70;99.90
59007;DHT22;44792;52.760;6.726;2024-01-11T01:37:47;-3.70;99.90
59007;DHT22;44792;52.760;6.726;2024-01-11T01:40:13;-3.70;99.90
59007;DHT22;44792;52.760;6.726;2024-01-11T01:42:45;-3.70;99.90
59007;DHT22;44792;52.760;6.726;2024-01-11T01:45:12;-3.70;99.90
59007;DHT22;44792;52.760;6.726;2024-01-11T01:47:40;-3.80;99.90
59007;DHT22;44792;52.760;6.726;2024-01-11T01:50:06;-3.80;99.90
59007;DHT22;44792;52.760;6.726;2024-01-11T01:52:33;-3.70;99.90
59007;DHT22;44792;52.760;6.726;2024-01-11T01:55:01;-3.80;99.90
59007;DHT22;44792;52.760;6.726;2024-01-11T01:57:28;-3.80;99.90
59007;DHT22;44792;52.760;6.726;2024-01-11T01:59:56;-3.90;99.90
59007;DHT22;44792;52.760;6.726;2024-01-11T02:02:22;-3.90;99.90
59007;DHT22;44792;52.760;6.726;2024-01-11T02:04:48;-3.90;99.90
59007;DHT22;44792;52.760;6.726;2024-01-11T02:07:14;-4.00;99.90
59007;DHT22;44792;52.760;6.726;2024-01-11T02:09:41;-3.90;99.90
59007;DHT22;44792;52.760;6.726;2024-01-11T02:12:08;-3.80;99.90
59007;DHT22;44792;52.760;6.726;2024-01-11T02:14:37;-3.90;99.90
59007;DHT22;44792;52.760;6.726;2024-01-11T02:17:03;-4.00;99.90
59007;DHT22;44792;52.760;6.726;2024-01-11T02:19:29;-4.00;99.90
59007;DHT22;44792;52.760;6.726;2024-01-11T02:21:54;-4.00;99.90
59007;DHT22;44792;52.760;6.726;2024-01-11T02:24:22;-4.00;99.90
59007;DHT22;44792;52.760;6.726;2024-01-11T02:27:02;-4.00;99.90
59007;DHT22;44792;52.760;6.726;2024-01-11T02:29:29;-3.90;99.90
59007;DHT22;44792;52.760;6.726;2024-01-11T02:31:55;-4.00;99.90
59007;DHT22;44792;52.760;6.726;2024-01-11T02:34:23;-3.90;99.90
59007;DHT22;44792;52.760;6.726;2024-01-11T02:36:50;-3.80;99.90
59007;DHT22;44792;52.760;6.726;2024-01-11T02:39:16;-3.80;99.90
59007;DHT22;44792;52.760;6.726;2024-01-11T02:41:44;-3.90;99.90
59007;DHT22;44792;52.760;6.726;2024-01-11T02:44:10;-3.90;99.90
59007;DHT22;44792;52.760;6.726;2024-01-11T02:46:36;-4.00;99.90
59007;DHT22;44792;52.760;6.726;2024-01-11T02:49:02;-4.00;99.90
59007;DHT22;44792;52.760;6.726;2024-01-11T02:51:28;-4.00;99.90
59007;DHT22;44792;52.760;6.726;2024-01-11T02:53:53;-4.00;99.90
59007;DHT22;44792;52.760;6.726;2024-01-11T02:56:19;-3.90;99.90
59007;DHT22;44792;52.760;6.726;2024-01-11T02:58:45;-4.00;99.90
59007;DHT22;44792;52.760;6.726;2024-01-11T03:01:10;-4.00;99.90
59007;DHT22;44792;52.760;6.726;2024-01-11T03:03:36;-4.00;99.90
59007;DHT22;44792;52.760;6.726;2024-01-11T03:06:02;-4.00;99.90
59007;DHT22;44792;52.760;6.726;2024-01-11T03:08:29;-4.10;99.90
59007;DHT22;44792;52.760;6.726;2024-01-11T03:10:54;-4.10;99.90
59007;DHT22;44792;52.760;6.726;2024-01-11T03:13:20;-4.10;99.90
59007;DHT22;44792;52.760;6.726;2024-01-11T03:15:46;-4.20;99.90
59007;DHT22;44792;52.760;6.726;2024-01-11T03:18:12;-4.20;99.90
59007;DHT22;44792;52.760;6.726;2024-01-11T03:20:38;-4.20;99.90
59007;DHT22;44792;52.760;6.726;2024-01-11T03:23:03;-4.20;99.90
59007;DHT22;44792;52.760;6.726;2024-01-11T03:25:29;-4.20;99.90
59007;DHT22;44792;52.760;6.726;2024-01-11T03:27:55;-4.20;99.90
59007;DHT22;44792;52.760;6.726;2024-01-11T03:30:21;-4.20;99.90
59007;DHT22;44792;52.760;6.726;2024-01-11T03:32:46;-4.20;99.90
59007;DHT22;44792;52.760;6.726;2024-01-11T03:35:12;-4.10;99.90
59007;DHT22;44792;52.760;6.726;2024-01-11T03:37:38;-4.10;99.90
59007;DHT22;44792;52.760;6.726;2024-01-11T03:40:04;-4.10;99.90
59007;DHT22;44792;52.760;6.726;2024-01-11T03:42:30;-4.10;99.90
59007;DHT22;44792;52.760;6.726;2024-01-11T03:44:56;-4.20;99.90
59007;DHT22;44792;52.760;6.726;2024-01-11T03:47:22;-4.10;99.90
59007;DHT22;44792;52.760;6.726;2024-01-11T03:49:48;-4.00;99.90
59007;DHT22;44792;52.760;6.726;2024-01-11T03:52:13;-4.10;99.90
59007;DHT22;44792;52.760;6.726;2024-01-11T03:54:39;-4.20;99.90
59007;DHT22;44792;52.760;6.726;2024-01-11T03:57:05;-4.30;99.90
59007;DHT22;44792;52.760;6.726;2024-01-11T03:59:32;-4.30;99.90
59007;DHT22;44792;52.760;6.726;2024-01-11T04:01:59;-4.20;99.90
59007;DHT22;44792;52.760;6.726;2024-01-11T04:04:24;-4.20;99.90
59007;DHT22;44792;52.760;6.726;2024-01-11T04:06:51;-4.20;99.90
59007;DHT22;44792;52.760;6.726;2024-01-11T04:09:17;-4.10;99.90
59007;DHT22;44792;52.760;6.726;2024-01-11T04:11:43;-4.10;99.90
59007;DHT22;44792;52.760;6.726;2024-01-11T04:14:09;-4.20;99.90
59007;DHT22;44792;52.760;6.726;2024-01-11T04:16:40;-4.10;99.90
59007;DHT22;44792;52.760;6.726;2024-01-11T04:19:06;-4.10;99.90
59007;DHT22;44792;52.760;6.726;2024-01-11T04:21:32;-4.20;99.90
59007;DHT22;44792;52.760;6.726;2024-01-11T04:23:58;-4.00;99.90
59007;DHT22;44792;52.760;6.726;2024-01-11T04:26:24;-4.00;99.90
59007;DHT22;44792;52.760;6.726;2024-01-11T04:28:50;-4.00;99.90
59007;DHT22;44792;52.760;6.726;2024-01-11T04:31:17;-4.20;99.90
59007;DHT22;44792;52.760;6.726;2024-01-11T04:33:43;-4.10;99.90
59007;DHT22;44792;52.760;6.726;2024-01-11T04:36:09;-4.10;99.90
59007;DHT22;44792;52.760;6.726;2024-01-11T04:38:35;-4.10;99.90
59007;DHT22;44792;52.760;6.726;2024-01-11T04:41:01;-4.10;99.90
59007;DHT22;44792;52.760;6.726;2024-01-11T04:43:27;-4.10;99.90
59007;DHT22;44792;52.760;6.726;2024-01-11T04:45:53;-4.00;99.90
59007;DHT22;44792;52.760;6.726;2024-01-11T04:48:18;-4.00;99.90
59007;DHT22;44792;52.760;6.726;2024-01-11T04:50:45;-4.20;99.90
59007;DHT22;44792;52.760;6.726;2024-01-11T04:53:10;-4.20;99.90
59007;DHT22;44792;52.760;6.726;2024-01-11T04:55:37;-4.20;99.90
59007;DHT22;44792;52.760;6.726;2024-01-11T04:58:02;-4.10;99.90
59007;DHT22;44792;52.760;6.726;2024-01-11T05:00:28;-4.20;99.90
59007;DHT22;44792;52.760;6.726;2024-01-11T05:02:54;-4.10;99.90
59007;DHT22;44792;52.760;6.726;2024-01-11T05:05:20;-4.20;99.90
59007;DHT22;44792;52.760;6.726;2024-01-11T05:07:46;-4.30;99.90
59007;DHT22;44792;52.760;6.726;2024-01-11T05:10:12;-4.20;99.90
59007;DHT22;44792;52.760;6.726;2024-01-11T05:12:37;-4.40;99.90
59007;DHT22;44792;52.760;6.726;2024-01-11T05:15:05;-4.40;99.90
59007;DHT22;44792;52.760;6.726;2024-01-11T05:17:31;-4.30;99.90
59007;DHT22;44792;52.760;6.726;2024-01-11T05:19:57;-4.30;99.90
59007;DHT22;44792;52.760;6.726;2024-01-11T05:22:23;-4.40;99.90
59007;DHT22;44792;52.760;6.726;2024-01-11T05:24:48;-4.40;99.90
59007;DHT22;44792;52.760;6.726;2024-01-11T05:27:14;-4.50;99.90
59007;DHT22;44792;52.760;6.726;2024-01-11T05:29:40;-4.60;99.90
59007;DHT22;44792;52.760;6.726;2024-01-11T05:32:06;-4.60;99.90
59007;DHT22;44792;52.760;6.726;2024-01-11T05:34:31;-4.60;99.90
59007;DHT22;44792;52.760;6.726;2024-01-11T05:36:57;-4.70;99.90
59007;DHT22;44792;52.760;6.726;2024-01-11T05:39:22;-4.60;99.90
59007;DHT22;44792;52.760;6.726;2024-01-11T05:41:48;-4.60;99.90
59007;DHT22;44792;52.760;6.726;2024-01-11T05:44:14;-4.80;99.90
59007;DHT22;44792;52.760;6.726;2024-01-11T05:46:39;-4.70;99.90
59007;DHT22;44792;52.760;6.726;2024-01-11T05:49:05;-4.60;99.90
59007;DHT22;44792;52.760;6.726;2024-01-11T05:51:31;-4.60;99.90
59007;DHT22;44792;52.760;6.726;2024-01-11T05:53:57;-4.60;99.90
59007;DHT22;44792;52.760;6.726;2024-01-11T05:56:22;-4.50;99.90
59007;DHT22;44792;52.760;6.726;2024-01-11T05:58:48;-4.50;99.90
59007;DHT22;44792;52.760;6.726;2024-01-11T06:01:14;-4.30;99.90
59007;DHT22;44792;52.760;6.726;2024-01-11T06:03:40;-4.10;99.90
59007;DHT22;44792;52.760;6.726;2024-01-11T06:06:05;-4.10;99.90
59007;DHT22;44792;52.760;6.726;2024-01-11T06:08:32;-4.00;99.90
59007;DHT22;44792;52.760;6.726;2024-01-11T06:10:58;-3.90;99.90
59007;DHT22;44792;52.760;6.726;2024-01-11T06:13:24;-3.90;99.90
59007;DHT22;44792;52.760;6.726;2024-01-11T06:15:50;-3.90;99.90
59007;DHT22;44792;52.760;6.726;2024-01-11T06:18:16;-3.80;99.90
59007;DHT22;44792;52.760;6.726;2024-01-11T06:20:41;-3.60;99.90
59007;DHT22;44792;52.760;6.726;2024-01-11T06:23:07;-3.50;99.90
59007;DHT22;44792;52.760;6.726;2024-01-11T06:25:33;-3.40;99.90
59007;DHT22;44792;52.760;6.726;2024-01-11T06:27:59;-3.30;99.90
59007;DHT22;44792;52.760;6.726;2024-01-11T06:30:25;-3.40;99.90
59007;DHT22;44792;52.760;6.726;2024-01-11T06:32:51;-3.40;99.90
59007;DHT22;44792;52.760;6.726;2024-01-11T06:35:16;-3.40;99.90
59007;DHT22;44792;52.760;6.726;2024-01-11T06:37:43;-3.40;99.90
59007;DHT22;44792;52.760;6.726;2024-01-11T06:40:09;-3.30;99.90
59007;DHT22;44792;52.760;6.726;2024-01-11T06:42:34;-3.30;99.90
59007;DHT22;44792;52.760;6.726;2024-01-11T06:45:00;-3.30;99.90
59007;DHT22;44792;52.760;6.726;2024-01-11T06:47:26;-3.10;99.90
59007;DHT22;44792;52.760;6.726;2024-01-11T06:49:53;-3.00;99.90
59007;DHT22;44792;52.760;6.726;2024-01-11T06:52:18;-3.00;99.90
59007;DHT22;44792;52.760;6.726;2024-01-11T06:54:45;-2.90;99.90
59007;DHT22;44792;52.760;6.726;2024-01-11T06:57:10;-2.70;99.90
59007;DHT22;44792;52.760;6.726;2024-01-11T06:59:36;-2.70;99.90
59007;DHT22;44792;52.760;6.726;2024-01-11T07:02:03;-2.80;99.90
59007;DHT22;44792;52.760;6.726;2024-01-11T07:04:29;-2.80;99.90
59007;DHT22;44792;52.760;6.726;2024-01-11T07:06:55;-2.70;99.90
59007;DHT22;44792;52.760;6.726;2024-01-11T07:09:20;-2.70;99.90
59007;DHT22;44792;52.760;6.726;2024-01-11T07:11:46;-2.70;99.90
59007;DHT22;44792;52.760;6.726;2024-01-11T07:14:12;-2.70;99.90
59007;DHT22;44792;52.760;6.726;2024-01-11T07:16:37;-2.70;99.90
59007;DHT22;44792;52.760;6.726;2024-01-11T07:19:03;-2.70;99.90
59007;DHT22;44792;52.760;6.726;2024-01-11T07:21:29;-2.70;99.90
59007;DHT22;44792;52.760;6.726;2024-01-11T07:23:58;-2.60;99.90
59007;DHT22;44792;52.760;6.726;2024-01-11T07:26:25;-2.50;99.90
59007;DHT22;44792;52.760;6.726;2024-01-11T07:28:51;-2.50;99.90
59007;DHT22;44792;52.760;6.726;2024-01-11T07:31:16;-2.50;99.90
59007;DHT22;44792;52.760;6.726;2024-01-11T07:33:43;-2.40;99.90
59007;DHT22;44792;52.760;6.726;2024-01-11T07:36:09;-2.40;99.90
59007;DHT22;44792;52.760;6.726;2024-01-11T07:38:35;-2.30;99.90
59007;DHT22;44792;52.760;6.726;2024-01-11T07:41:00;-2.30;99.90
59007;DHT22;44792;52.760;6.726;2024-01-11T07:43:27;-2.30;99.90
59007;DHT22;44792;52.760;6.726;2024-01-11T07:45:57;-2.30;99.90
59007;DHT22;44792;52.760;6.726;2024-01-11T07:48:23;-2.20;99.90
59007;DHT22;44792;52.760;6.726;2024-01-11T07:50:49;-2.20;99.90
59007;DHT22;44792;52.760;6.726;2024-01-11T07:53:15;-2.30;99.90
59007;DHT22;44792;52.760;6.726;2024-01-11T07:55:41;-2.20;99.90
59007;DHT22;44792;52.760;6.726;2024-01-11T07:58:07;-2.10;99.90
59007;DHT22;44792;52.760;6.726;2024-01-11T08:00:33;-2.10;99.90
59007;DHT22;44792;52.760;6.726;2024-01-11T08:02:59;-2.10;99.90
59007;DHT22;44792;52.760;6.726;2024-01-11T08:05:25;-2.00;99.90
59007;DHT22;44792;52.760;6.726;2024-01-11T08:07:51;-2.00;99.90
59007;DHT22;44792;52.760;6.726;2024-01-11T08:10:17;-1.90;99.90
59007;DHT22;44792;52.760;6.726;2024-01-11T08:12:43;-1.90;99.90
59007;DHT22;44792;52.760;6.726;2024-01-11T08:15:09;-1.90;99.90
59007;DHT22;44792;52.760;6.726;2024-01-11T08:17:39;-1.90;99.90
59007;DHT22;44792;52.760;6.726;2024-01-11T08:20:05;-2.00;99.90
59007;DHT22;44792;52.760;6.726;2024-01-11T08:22:34;-1.90;99.90
59007;DHT22;44792;52.760;6.726;2024-01-11T08:25:02;-1.90;99.90
59007;DHT22;44792;52.760;6.726;2024-01-11T08:27:33;-1.80;99.90
59007;DHT22;44792;52.760;6.726;2024-01-11T08:29:59;-1.80;99.90
59007;DHT22;44792;52.760;6.726;2024-01-11T08:32:26;-1.80;99.90
59007;DHT22;44792;52.760;6.726;2024-01-11T08:34:52;-1.80;99.90
59007;DHT22;44792;52.760;6.726;2024-01-11T08:37:17;-1.80;99.90
59007;DHT22;44792;52.760;6.726;2024-01-11T08:39:43;-1.70;99.90
59007;DHT22;44792;52.760;6.726;2024-01-11T08:42:11;-1.70;99.90
59007;DHT22;44792;52.760;6.726;2024-01-11T08:44:43;-1.70;99.90
59007;DHT22;44792;52.760;6.726;2024-01-11T08:47:10;-1.60;99.90
59007;DHT22;44792;52.760;6.726;2024-01-11T08:49:39;-1.70;99.90
59007;DHT22;44792;52.760;6.726;2024-01-11T08:52:05;-1.60;99.90
59007;DHT22;44792;52.760;6.726;2024-01-11T08:54:31;-1.60;99.90
59007;DHT22;44792;52.760;6.726;2024-01-11T08:57:01;-1.60;99.90
59007;DHT22;44792;52.760;6.726;2024-01-11T08:59:27;-1.60;99.90
59007;DHT22;44792;52.760;6.726;2024-01-11T09:01:53;-1.50;99.90
59007;DHT22;44792;52.760;6.726;2024-01-11T09:04:18;-1.40;99.90
59007;DHT22;44792;52.760;6.726;2024-01-11T09:06:44;-1.50;99.90
59007;DHT22;44792;52.760;6.726;2024-01-11T09:09:11;-1.40;99.90
59007;DHT22;44792;52.760;6.726;2024-01-11T09:11:39;-1.30;99.90
59007;DHT22;44792;52.760;6.726;2024-01-11T09:14:09;-1.30;99.90
59007;DHT22;44792;52.760;6.726;2024-01-11T09:16:38;-1.30;99.90
59007;DHT22;44792;52.760;6.726;2024-01-11T09:19:05;-1.20;99.90
59007;DHT22;44792;52.760;6.726;2024-01-11T09:21:31;-1.20;99.90
59007;DHT22;44792;52.760;6.726;2024-01-11T09:23:56;-1.20;99.90
59007;DHT22;44792;52.760;6.726;2024-01-11T09:26:22;-1.20;99.90
59007;DHT22;44792;52.760;6.726;2024-01-11T09:28:48;-1.10;99.90
59007;DHT22;44792;52.760;6.726;2024-01-11T09:31:14;-1.10;99.90
59007;DHT22;44792;52.760;6.726;2024-01-11T09:33:39;-1.10;99.90
59007;DHT22;44792;52.760;6.726;2024-01-11T09:36:07;-1.10;99.90
59007;DHT22;44792;52.760;6.726;2024-01-11T09:38:33;-1.10;99.90
59007;DHT22;44792;52.760;6.726;2024-01-11T09:41:12;-1.00;99.90
59007;DHT22;44792;52.760;6.726;2024-01-11T09:43:38;-1.00;99.90
59007;DHT22;44792;52.760;6.726;2024-01-11T09:46:06;-1.10;99.90
59007;DHT22;44792;52.760;6.726;2024-01-11T09:48:36;-1.00;99.90
59007;DHT22;44792;52.760;6.726;2024-01-11T09:51:03;-0.90;99.90
59007;DHT22;44792;52.760;6.726;2024-01-11T09:53:33;-0.90;99.90
59007;DHT22;44792;52.760;6.726;2024-01-11T09:56:00;-0.80;99.90
59007;DHT22;44792;52.760;6.726;2024-01-11T09:58:26;-0.80;99.90
59007;DHT22;44792;52.760;6.726;2024-01-11T10:00:55;-0.80;99.90
59007;DHT22;44792;52.760;6.726;2024-01-11T10:03:25;-0.70;99.90
59007;DHT22;44792;52.760;6.726;2024-01-11T10:05:58;-0.70;99.90
59007;DHT22;44792;52.760;6.726;2024-01-11T10:08:24;-0.60;99.90
59007;DHT22;44792;52.760;6.726;2024-01-11T10:10:50;-0.60;99.90
59007;DHT22;44792;52.760;6.726;2024-01-11T10:13:16;-0.50;99.90
59007;DHT22;44792;52.760;6.726;2024-01-11T10:15:45;-0.50;99.90
59007;DHT22;44792;52.760;6.726;2024-01-11T10:18:11;-0.50;99.90
59007;DHT22;44792;52.760;6.726;2024-01-11T10:20:38;-0.40;99.90
59007;DHT22;44792;52.760;6.726;2024-01-11T10:23:04;-0.40;99.90
59007;DHT22;44792;52.760;6.726;2024-01-11T10:25:29;-0.40;99.90
59007;DHT22;44792;52.760;6.726;2024-01-11T10:27:55;-0.30;99.90
59007;DHT22;44792;52.760;6.726;2024-01-11T10:30:21;-0.30;99.90
59007;DHT22;44792;52.760;6.726;2024-01-11T10:32:49;-0.30;99.90
59007;DHT22;44792;52.760;6.726;2024-01-11T10:35:15;-0.30;99.90
59007;DHT22;44792;52.760;6.726;2024-01-11T10:37:43;-0.20;99.90
59007;DHT22;44792;52.760;6.726;2024-01-11T10:40:09;-0.20;99.90
59007;DHT22;44792;52.760;6.726;2024-01-11T10:42:52;-0.20;99.90
59007;DHT22;44792;52.760;6.726;2024-01-11T10:45:19;-0.20;99.90
59007;DHT22;44792;52.760;6.726;2024-01-11T10:48:07;-0.20;99.90
59007;DHT22;44792;52.760;6.726;2024-01-11T10:50:37;-0.10;99.90
59007;DHT22;44792;52.760;6.726;2024-01-11T10:55:37;0.00;99.90
59007;DHT22;44792;52.760;6.726;2024-01-11T10:58:03;0.00;99.90
59007;DHT22;44792;52.760;6.726;2024-01-11T11:00:31;0.00;99.90
59007;DHT22;44792;52.760;6.726;2024-01-11T11:02:59;0.00;99.90
59007;DHT22;44792;52.760;6.726;2024-01-11T11:05:27;0.00;99.90
59007;DHT22;44792;52.760;6.726;2024-01-11T11:07:55;0.10;99.90
59007;DHT22;44792;52.760;6.726;2024-01-11T11:10:22;0.10;99.90
59007;DHT22;44792;52.760;6.726;2024-01-11T11:12:48;0.20;99.90
59007;DHT22;44792;52.760;6.726;2024-01-11T11:15:15;0.20;99.90
59007;DHT22;44792;52.760;6.726;2024-01-11T11:17:42;0.20;99.90
59007;DHT22;44792;52.760;6.726;2024-01-11T11:20:10;0.20;99.90
59007;DHT22;44792;52.760;6.726;2024-01-11T11:22:42;0.20;99.90
59007;DHT22;44792;52.760;6.726;2024-01-11T11:25:24;0.30;99.90
59007;DHT22;44792;52.760;6.726;2024-01-11T11:27:50;0.30;99.90
59007;DHT22;44792;52.760;6.726;2024-01-11T11:30:19;0.30;99.90
59007;DHT22;44792;52.760;6.726;2024-01-11T11:32:45;0.40;99.90
59007;DHT22;44792;52.760;6.726;2024-01-11T11:35:12;0.40;99.90
59007;DHT22;44792;52.760;6.726;2024-01-11T11:37:38;0.40;99.90
59007;DHT22;44792;52.760;6.726;2024-01-11T11:40:09;0.40;99.90
59007;DHT22;44792;52.760;6.726;2024-01-11T11:42:36;0.40;99.90
59007;DHT22;44792;52.760;6.726;2024-01-11T11:45:02;0.40;99.90
59007;DHT22;44792;52.760;6.726;2024-01-11T11:47:46;0.50;99.90
59007;DHT22;44792;52.760;6.726;2024-01-11T11:50:12;0.50;99.90
59007;DHT22;44792;52.760;6.726;2024-01-11T11:52:40;0.50;99.90
59007;DHT22;44792;52.760;6.726;2024-01-11T11:55:08;0.50;99.90
59007;DHT22;44792;52.760;6.726;2024-01-11T11:57:35;0.60;99.90
59007;DHT22;44792;52.760;6.726;2024-01-11T12:00:01;0.60;99.90
59007;DHT22;44792;52.760;6.726;2024-01-11T12:02:31;0.60;99.90
59007;DHT22;44792;52.760;6.726;2024-01-11T12:04:57;0.70;99.90
59007;DHT22;44792;52.760;6.726;2024-01-11T12:07:23;0.60;99.90
59007;DHT22;44792;52.760;6.726;2024-01-11T12:09:49;0.70;99.90
59007;DHT22;44792;52.760;6.726;2024-01-11T12:12:16;0.70;99.90
59007;DHT22;44792;52.760;6.726;2024-01-11T12:14:43;0.80;99.90
59007;DHT22;44792;52.760;6.726;2024-01-11T12:17:09;0.70;99.90
59007;DHT22;44792;52.760;6.726;2024-01-11T12:19:35;0.70;99.90
59007;DHT22;44792;52.760;6.726;2024-01-11T12:22:00;0.70;99.90
59007;DHT22;44792;52.760;6.726;2024-01-11T12:24:27;0.70;99.90
59007;DHT22;44792;52.760;6.726;2024-01-11T12:26:53;0.80;99.90
59007;DHT22;44792;52.760;6.726;2024-01-11T12:29:20;0.80;99.90
59007;DHT22;44792;52.760;6.726;2024-01-11T12:31:48;0.80;99.90
59007;DHT22;44792;52.760;6.726;2024-01-11T12:34:14;0.80;99.90
59007;DHT22;44792;52.760;6.726;2024-01-11T12:36:40;0.80;99.90
59007;DHT22;44792;52.760;6.726;2024-01-11T12:39:06;0.80;99.90
59007;DHT22;44792;52.760;6.726;2024-01-11T12:41:34;0.90;99.90
59007;DHT22;44792;52.760;6.726;2024-01-11T12:44:01;0.90;99.90
59007;DHT22;44792;52.760;6.726;2024-01-11T12:46:27;0.90;99.90
59007;DHT22;44792;52.760;6.726;2024-01-11T12:48:53;0.90;99.90
59007;DHT22;44792;52.760;6.726;2024-01-11T12:51:19;0.90;99.90
59007;DHT22;44792;52.760;6.726;2024-01-11T12:53:48;0.90;99.90
59007;DHT22;44792;52.760;6.726;2024-01-11T12:56:15;0.90;99.90
59007;DHT22;44792;52.760;6.726;2024-01-11T12:58:41;0.90;99.90
59007;DHT22;44792;52.760;6.726;2024-01-11T13:01:07;1.00;99.90
59007;DHT22;44792;52.760;6.726;2024-01-11T13:03:39;1.00;99.90
59007;DHT22;44792;52.760;6.726;2024-01-11T13:06:05;1.00;99.90
59007;DHT22;44792;52.760;6.726;2024-01-11T13:08:31;1.00;99.90
59007;DHT22;44792;52.760;6.726;2024-01-11T13:10:57;1.10;99.90
59007;DHT22;44792;52.760;6.726;2024-01-11T13:13:23;1.10;99.90
59007;DHT22;44792;52.760;6.726;2024-01-11T13:15:49;1.10;99.90
59007;DHT22;44792;52.760;6.726;2024-01-11T13:18:16;1.10;99.90
59007;DHT22;44792;52.760;6.726;2024-01-11T13:20:42;1.10;99.90
59007;DHT22;44792;52.760;6.726;2024-01-11T13:23:18;1.10;99.90
59007;DHT22;44792;52.760;6.726;2024-01-11T13:25:46;1.10;99.90
59007;DHT22;44792;52.760;6.726;2024-01-11T13:28:12;1.10;99.90
59007;DHT22;44792;52.760;6.726;2024-01-11T13:30:39;1.10;99.90
59007;DHT22;44792;52.760;6.726;2024-01-11T13:33:06;1.10;99.90
59007;DHT22;44792;52.760;6.726;2024-01-11T13:35:37;1.10;99.90
59007;DHT22;44792;52.760;6.726;2024-01-11T13:38:03;1.20;99.90
59007;DHT22;44792;52.760;6.726;2024-01-11T13:40:30;1.20;99.90
59007;DHT22;44792;52.760;6.726;2024-01-11T13:42:56;1.20;99.90
59007;DHT22;44792;52.760;6.726;2024-01-11T13:45:22;1.20;99.90
59007;DHT22;44792;52.760;6.726;2024-01-11T13:47:48;1.20;99.90
59007;DHT22;44792;52.760;6.726;2024-01-11T13:50:14;1.20;99.90
59007;DHT22;44792;52.760;6.726;2024-01-11T13:52:40;1.20;99.90
59007;DHT22;44792;52.760;6.726;2024-01-11T13:55:07;1.20;99.90
59007;DHT22;44792;52.760;6.726;2024-01-11T13:57:36;1.10;99.90
59007;DHT22;44792;52.760;6.726;2024-01-11T14:00:03;1.10;99.90
59007;DHT22;44792;52.760;6.726;2024-01-11T14:02:29;1.10;99.90
59007;DHT22;44792;52.760;6.726;2024-01-11T14:04:55;1.10;99.90
59007;DHT22;44792;52.760;6.726;2024-01-11T14:07:20;1.20;99.90
59007;DHT22;44792;52.760;6.726;2024-01-11T14:09:46;1.20;99.90
59007;DHT22;44792;52.760;6.726;2024-01-11T14:12:11;1.20;99.90
59007;DHT22;44792;52.760;6.726;2024-01-11T14:14:37;1.20;99.90
59007;DHT22;44792;52.760;6.726;2024-01-11T14:17:03;1.20;99.90
59007;DHT22;44792;52.760;6.726;2024-01-11T14:19:28;1.20;99.90
59007;DHT22;44792;52.760;6.726;2024-01-11T14:21:54;1.20;99.90
59007;DHT22;44792;52.760;6.726;2024-01-11T14:24:20;1.20;99.90
59007;DHT22;44792;52.760;6.726;2024-01-11T14:26:45;1.20;99.90
59007;DHT22;44792;52.760;6.726;2024-01-11T14:29:11;1.20;99.90
59007;DHT22;44792;52.760;6.726;2024-01-11T14:31:37;1.20;99.90
59007;DHT22;44792;52.760;6.726;2024-01-11T14:34:04;1.20;99.90
59007;DHT22;44792;52.760;6.726;2024-01-11T14:36:30;1.20;99.90
59007;DHT22;44792;52.760;6.726;2024-01-11T14:38:59;1.20;99.90
59007;DHT22;44792;52.760;6.726;2024-01-11T14:41:24;1.30;99.90
59007;DHT22;44792;52.760;6.726;2024-01-11T14:43:53;1.30;99.90
59007;DHT22;44792;52.760;6.726;2024-01-11T14:46:20;1.30;99.90
59007;DHT22;44792;52.760;6.726;2024-01-11T14:48:45;1.30;99.90
59007;DHT22;44792;52.760;6.726;2024-01-11T14:51:11;1.30;99.90
59007;DHT22;44792;52.760;6.726;2024-01-11T14:53:37;1.30;99.90
59007;DHT22;44792;52.760;6.726;2024-01-11T14:56:02;1.30;99.90
59007;DHT22;44792;52.760;6.726;2024-01-11T14:58:28;1.30;99.90
59007;DHT22;44792;52.760;6.726;2024-01-11T15:00:54;1.30;99.90
59007;DHT22;44792;52.760;6.726;2024-01-11T15:03:19;1.30;99.90
59007;DHT22;44792;52.760;6.726;2024-01-11T15:05:45;1.30;99.90
59007;DHT22;44792;52.760;6.726;2024-01-11T15:08:11;1.30;99.90
59007;DHT22;44792;52.760;6.726;2024-01-11T15:10:37;1.30;99.90
59007;DHT22;44792;52.760;6.726;2024-01-11T15:13:03;1.30;99.90
59007;DHT22;44792;52.760;6.726;2024-01-11T15:15:28;1.30;99.90
59007;DHT22;44792;52.760;6.726;2024-01-11T15:17:54;1.30;99.90
59007;DHT22;44792;52.760;6.726;2024-01-11T15:20:20;1.30;99.90
59007;DHT22;44792;52.760;6.726;2024-01-11T15:22:47;1.30;99.90
59007;DHT22;44792;52.760;6.726;2024-01-11T15:25:13;1.30;99.90
59007;DHT22;44792;52.760;6.726;2024-01-11T15:27:38;1.40;99.90
59007;DHT22;44792;52.760;6.726;2024-01-11T15:30:04;1.50;99.90
59007;DHT22;44792;52.760;6.726;2024-01-11T15:32:31;1.50;99.90